sensor_id;sensor_type;location;lat;lon;timestamp;temperature;humidity
74484;SHT31;62942;52.462;10.846;2022-12-29T00:01:01;9.4;81.5
74484;SHT31;62942;52.462;10.846;2022-12-29T00:02:11;9.4;81.6
74484;SHT31;62942;52.462;10.846;2022-12-29T00:03:21;9.4;81.6
74484;SHT31;62942;52.462;10.846;2022-12-29T00:04:31;9.3;81.7
74484;SHT31;62942;52.462;10.846;2022-12-29T00:05:31;9.3;81.7
74484;SHT31;62942;52.462;10.846;2022-12-29T00:06:41;9.3;81.8
74484;SHT31;62942;52.462;10.846;2022-12-29T00:07:51;9.3;81.8
74484;SHT31;62942;52.462;10.846;2022-12-29T00:08:51;9.2;81.9
74484;SHT31;62942;52.462;10.846;2022-12-29T00:10:01;9.2;81.9
74484;SHT31;62942;52.462;10.846;2022-12-29T00:11:01;9.2;81.9
74484;SHT31;62942;52.462;10.846;2022-12-29T00:12:11;9.2;82
74484;SHT31;62942;52.462;10.846;2022-12-29T00:13:11;9.2;82
74484;SHT31;62942;52.462;10.846;2022-12-29T00:14:21;9.2;82
74484;SHT31;62942;52.462;10.846;2022-12-29T00:15:31;9.2;82
74484;SHT31;62942;52.462;10.846;2022-12-29T00:16:42;9.2;82
74484;SHT31;62942;52.462;10.846;2022-12-29T00:17:41;9.2;82
74484;SHT31;62942;52.462;10.846;2022-12-29T00:18:41;9.2;82
74484;SHT31;62942;52.462;10.846;2022-12-29T00:19:51;9.2;82.1
74484;SHT31;62942;52.462;10.846;2022-12-29T00:20:51;9.2;82
74484;SHT31;62942;52.462;10.846;2022-12-29T00:21:51;9.3;82.1
74484;SHT31;62942;52.462;10.846;2022-12-29T00:23:01;9.3;82
74484;SHT31;62942;52.462;10.846;2022-12-29T00:24:01;9.3;81.9
74484;SHT31;62942;52.462;10.846;2022-12-29T00:25:12;9.3;81.9
74484;SHT31;62942;52.462;10.846;2022-12-29T00:26:21;9.4;81.9
74484;SHT31;62942;52.462;10.846;2022-12-29T00:27:31;9.4;81.9
74484;SHT31;62942;52.462;10.846;2022-12-29T00:28:41;9.4;81.7
74484;SHT31;62942;52.462;10.846;2022-12-29T00:29:51;9.4;81.7
74484;SHT31;62942;52.462;10.846;2022-12-29T00:31:01;9.5;81.6
74484;SHT31;62942;52.462;10.846;2022-12-29T00:32:11;9.5;81.5
74484;SHT31;62942;52.462;10.846;2022-12-29T00:33:21;9.5;81.5
74484;SHT31;62942;52.462;10.846;2022-12-29T00:34:31;9.6;81.3
74484;SHT31;62942;52.462;10.846;2022-12-29T00:35:31;9.6;81.4
74484;SHT31;62942;52.462;10.846;2022-12-29T00:36:41;9.6;81.3
74484;SHT31;62942;52.462;10.846;2022-12-29T00:37:51;9.6;81.2
74484;SHT31;62942;52.462;10.846;2022-12-29T00:38:52;9.6;81.1
74484;SHT31;62942;52.462;10.846;2022-12-29T00:39:51;9.7;81
74484;SHT31;62942;52.462;10.846;2022-12-29T00:41:01;9.7;80.9
74484;SHT31;62942;52.462;10.846;2022-12-29T00:42:02;9.7;80.7
74484;SHT31;62942;52.462;10.846;2022-12-29T00:43:11;9.7;80.7
74484;SHT31;62942;52.462;10.846;2022-12-29T00:44:21;9.7;80.7
74484;SHT31;62942;52.462;10.846;2022-12-29T00:45:31;9.7;80.7
74484;SHT31;62942;52.462;10.846;2022-12-29T00:46:31;9.7;80.6
74484;SHT31;62942;52.462;10.846;2022-12-29T00:47:41;9.7;80.7
74484;SHT31;62942;52.462;10.846;2022-12-29T00:48:41;9.8;80.7
74484;SHT31;62942;52.462;10.846;2022-12-29T00:49:51;9.8;80.7
74484;SHT31;62942;52.462;10.846;2022-12-29T00:50:55;9.7;80.7
74484;SHT31;62942;52.462;10.846;2022-12-29T00:51:51;9.8;80.7
74484;SHT31;62942;52.462;10.846;2022-12-29T00:53:01;9.8;80.6
74484;SHT31;62942;52.462;10.846;2022-12-29T00:54:11;9.8;80.6
74484;SHT31;62942;52.462;10.846;2022-12-29T00:55:11;9.8;80.6
74484;SHT31;62942;52.462;10.846;2022-12-29T00:56:21;9.8;80.7
74484;SHT31;62942;52.462;10.846;2022-12-29T00:57:31;9.8;80.7
74484;SHT31;62942;52.462;10.846;2022-12-29T00:58:41;9.8;80.6
74484;SHT31;62942;52.462;10.846;2022-12-29T00:59:51;9.8;80.6
74484;SHT31;62942;52.462;10.846;2022-12-29T01:01:01;9.8;80.6
74484;SHT31;62942;52.462;10.846;2022-12-29T01:02:01;9.8;80.6
74484;SHT31;62942;52.462;10.846;2022-12-29T01:03:11;9.8;80.7
74484;SHT31;62942;52.462;10.846;2022-12-29T01:04:22;9.8;80.9
74484;SHT31;62942;52.462;10.846;2022-12-29T01:05:31;9.8;81.1
74484;SHT31;62942;52.462;10.846;2022-12-29T01:06:31;9.7;81.1
74484;SHT31;62942;52.462;10.846;2022-12-29T01:07:41;9.7;81.3
74484;SHT31;62942;52.462;10.846;2022-12-29T01:08:41;9.7;81
74484;SHT31;62942;52.462;10.846;2022-12-29T01:09:51;9.7;81.1
74484;SHT31;62942;52.462;10.846;2022-12-29T01:10:57;9.7;80.9
74484;SHT31;62942;52.462;10.846;2022-12-29T01:11:51;9.7;81
74484;SHT31;62942;52.462;10.846;2022-12-29T01:12:51;9.7;81
74484;SHT31;62942;52.462;10.846;2022-12-29T01:13:51;9.7;81
74484;SHT31;62942;52.462;10.846;2022-12-29T01:14:51;9.8;80.9
74484;SHT31;62942;52.462;10.846;2022-12-29T01:15:51;9.8;80.8
74484;SHT31;62942;52.462;10.846;2022-12-29T01:17:01;9.8;80.7
74484;SHT31;62942;52.462;10.846;2022-12-29T01:18:01;9.8;80.7
74484;SHT31;62942;52.462;10.846;2022-12-29T01:19:01;9.8;80.6
74484;SHT31;62942;52.462;10.846;2022-12-29T01:20:11;9.8;80.7
74484;SHT31;62942;52.462;10.846;2022-12-29T01:21:21;9.8;80.7
74484;SHT31;62942;52.462;10.846;2022-12-29T01:22:31;9.8;80.7
74484;SHT31;62942;52.462;10.846;2022-12-29T01:23:31;9.8;80.7
74484;SHT31;62942;52.462;10.846;2022-12-29T01:24:31;9.8;80.7
74484;SHT31;62942;52.462;10.846;2022-12-29T01:25:41;9.8;80.7
74484;SHT31;62942;52.462;10.846;2022-12-29T01:26:41;9.8;80.7
74484;SHT31;62942;52.462;10.846;2022-12-29T01:27:41;9.8;80.7
74484;SHT31;62942;52.462;10.846;2022-12-29T01:28:51;9.8;80.8
74484;SHT31;62942;52.462;10.846;2022-12-29T01:29:51;9.8;80.8
74484;SHT31;62942;52.462;10.846;2022-12-29T01:31:01;9.8;80.7
74484;SHT31;62942;52.462;10.846;2022-12-29T01:32:11;9.9;80.7
74484;SHT31;62942;52.462;10.846;2022-12-29T01:33:11;9.8;80.7
74484;SHT31;62942;52.462;10.846;2022-12-29T01:34:21;9.9;80.7
74484;SHT31;62942;52.462;10.846;2022-12-29T01:35:21;9.9;80.6
74484;SHT31;62942;52.462;10.846;2022-12-29T01:36:21;9.9;80.6
74484;SHT31;62942;52.462;10.846;2022-12-29T01:37:21;9.9;80.6
74484;SHT31;62942;52.462;10.846;2022-12-29T01:38:31;9.9;80.6
74484;SHT31;62942;52.462;10.846;2022-12-29T01:39:31;9.9;80.6
74484;SHT31;62942;52.462;10.846;2022-12-29T01:40:43;9.9;80.6
74484;SHT31;62942;52.462;10.846;2022-12-29T01:41:41;9.9;80.5
74484;SHT31;62942;52.462;10.846;2022-12-29T01:42:41;9.9;80.5
74484;SHT31;62942;52.462;10.846;2022-12-29T01:43:42;9.9;80.6
74484;SHT31;62942;52.462;10.846;2022-12-29T01:44:47;10;80.6
74484;SHT31;62942;52.462;10.846;2022-12-29T01:45:42;9.9;80.6
74484;SHT31;62942;52.462;10.846;2022-12-29T01:46:51;9.9;80.6
74484;SHT31;62942;52.462;10.846;2022-12-29T01:47:52;9.9;80.7
74484;SHT31;62942;52.462;10.846;2022-12-29T01:49:04;10;80.5
74484;SHT31;62942;52.462;10.846;2022-12-29T01:50:11;10;80.5
74484;SHT31;62942;52.462;10.846;2022-12-29T01:51:21;9.9;80.5
74484;SHT31;62942;52.462;10.846;2022-12-29T01:52:21;10;80.5
74484;SHT31;62942;52.462;10.846;2022-12-29T01:53:22;10;80.5
74484;SHT31;62942;52.462;10.846;2022-12-29T01:54:23;10;80.6
74484;SHT31;62942;52.462;10.846;2022-12-29T01:55:32;10;80.7
74484;SHT31;62942;52.462;10.846;2022-12-29T01:56:31;10;80.7
74484;SHT31;62942;52.462;10.846;2022-12-29T01:57:42;10;80.6
74484;SHT31;62942;52.462;10.846;2022-12-29T01:58:53;10;80.6
74484;SHT31;62942;52.462;10.846;2022-12-29T02:00:02;10;80.6
74484;SHT31;62942;52.462;10.846;2022-12-29T02:01:11;10;80.5
74484;SHT31;62942;52.462;10.846;2022-12-29T02:02:11;10;80.6
74484;SHT31;62942;52.462;10.846;2022-12-29T02:03:21;10;80.6
74484;SHT31;62942;52.462;10.846;2022-12-29T02:04:21;10;80.6
74484;SHT31;62942;52.462;10.846;2022-12-29T02:05:33;10;80.7
74484;SHT31;62942;52.462;10.846;2022-12-29T02:06:32;10;80.7
74484;SHT31;62942;52.462;10.846;2022-12-29T02:07:31;10;80.8
74484;SHT31;62942;52.462;10.846;2022-12-29T02:08:41;10;80.9
74484;SHT31;62942;52.462;10.846;2022-12-29T02:09:41;10;81
74484;SHT31;62942;52.462;10.846;2022-12-29T02:10:41;10;81.1
74484;SHT31;62942;52.462;10.846;2022-12-29T02:11:51;10;81
74484;SHT31;62942;52.462;10.846;2022-12-29T02:12:51;10;81.1
74484;SHT31;62942;52.462;10.846;2022-12-29T02:14:01;10;81
74484;SHT31;62942;52.462;10.846;2022-12-29T02:15:01;10;81.1
74484;SHT31;62942;52.462;10.846;2022-12-29T02:16:03;10;81.1
74484;SHT31;62942;52.462;10.846;2022-12-29T02:17:13;10;81.1
74484;SHT31;62942;52.462;10.846;2022-12-29T02:18:24;10;81.2
74484;SHT31;62942;52.462;10.846;2022-12-29T02:19:32;10;81.2
74484;SHT31;62942;52.462;10.846;2022-12-29T02:20:27;10;81.2
74484;SHT31;62942;52.462;10.846;2022-12-29T02:21:30;10;81.3
74484;SHT31;62942;52.462;10.846;2022-12-29T02:22:32;9.9;81.3
74484;SHT31;62942;52.462;10.846;2022-12-29T02:24:39;9.9;81.3
74484;SHT31;62942;52.462;10.846;2022-12-29T02:24:51;9.9;81.4
74484;SHT31;62942;52.462;10.846;2022-12-29T02:25:46;9.9;81.4
74484;SHT31;62942;52.462;10.846;2022-12-29T02:27:02;9.9;81.6
74484;SHT31;62942;52.462;10.846;2022-12-29T02:28:03;9.8;81.6
74484;SHT31;62942;52.462;10.846;2022-12-29T02:29:00;9.8;81.6
74484;SHT31;62942;52.462;10.846;2022-12-29T02:30:04;9.8;81.7
74484;SHT31;62942;52.462;10.846;2022-12-29T02:31:12;9.8;81.8
74484;SHT31;62942;52.462;10.846;2022-12-29T02:32:22;9.7;81.9
74484;SHT31;62942;52.462;10.846;2022-12-29T02:33:23;9.7;81.9
74484;SHT31;62942;52.462;10.846;2022-12-29T02:34:32;9.7;82
74484;SHT31;62942;52.462;10.846;2022-12-29T02:35:43;9.7;82.1
74484;SHT31;62942;52.462;10.846;2022-12-29T02:36:42;9.7;82.2
74484;SHT31;62942;52.462;10.846;2022-12-29T02:37:53;9.7;82.3
74484;SHT31;62942;52.462;10.846;2022-12-29T02:38:53;9.7;82.3
74484;SHT31;62942;52.462;10.846;2022-12-29T02:39:52;9.7;82.4
74484;SHT31;62942;52.462;10.846;2022-12-29T02:40:52;9.7;82.4
74484;SHT31;62942;52.462;10.846;2022-12-29T02:42:03;9.7;82.5
74484;SHT31;62942;52.462;10.846;2022-12-29T02:43:13;9.7;82.5
74484;SHT31;62942;52.462;10.846;2022-12-29T02:44:23;9.7;82.5
74484;SHT31;62942;52.462;10.846;2022-12-29T02:45:31;9.7;82.5
74484;SHT31;62942;52.462;10.846;2022-12-29T02:46:33;9.7;82.5
74484;SHT31;62942;52.462;10.846;2022-12-29T02:47:34;9.7;82.5
74484;SHT31;62942;52.462;10.846;2022-12-29T02:48:31;9.7;82.5
74484;SHT31;62942;52.462;10.846;2022-12-29T02:49:33;9.6;82.5
74484;SHT31;62942;52.462;10.846;2022-12-29T02:50:43;9.6;82.6
74484;SHT31;62942;52.462;10.846;2022-12-29T02:51:51;9.6;82.7
74484;SHT31;62942;52.462;10.846;2022-12-29T02:52:51;9.6;82.7
74484;SHT31;62942;52.462;10.846;2022-12-29T02:53:51;9.6;82.7
74484;SHT31;62942;52.462;10.846;2022-12-29T02:55:01;9.6;82.9
74484;SHT31;62942;52.462;10.846;2022-12-29T02:56:11;9.6;82.9
74484;SHT31;62942;52.462;10.846;2022-12-29T02:57:29;9.6;82.9
74484;SHT31;62942;52.462;10.846;2022-12-29T02:58:22;9.6;82.9
74484;SHT31;62942;52.462;10.846;2022-12-29T02:59:31;9.6;82.9
74484;SHT31;62942;52.462;10.846;2022-12-29T03:00:31;9.6;82.9
74484;SHT31;62942;52.462;10.846;2022-12-29T03:01:45;9.6;83
74484;SHT31;62942;52.462;10.846;2022-12-29T03:02:46;9.6;83
74484;SHT31;62942;52.462;10.846;2022-12-29T03:03:55;9.6;83
74484;SHT31;62942;52.462;10.846;2022-12-29T03:04:56;9.6;83.1
74484;SHT31;62942;52.462;10.846;2022-12-29T03:05:57;9.6;83
74484;SHT31;62942;52.462;10.846;2022-12-29T03:07:02;9.7;83
74484;SHT31;62942;52.462;10.846;2022-12-29T03:08:02;9.6;83
74484;SHT31;62942;52.462;10.846;2022-12-29T03:09:13;9.6;83
74484;SHT31;62942;52.462;10.846;2022-12-29T03:10:25;9.7;83
74484;SHT31;62942;52.462;10.846;2022-12-29T03:11:21;9.7;83
74484;SHT31;62942;52.462;10.846;2022-12-29T03:12:31;9.7;83
74484;SHT31;62942;52.462;10.846;2022-12-29T03:13:33;9.7;83
74484;SHT31;62942;52.462;10.846;2022-12-29T03:14:46;9.7;83
74484;SHT31;62942;52.462;10.846;2022-12-29T03:15:53;9.7;83.1
74484;SHT31;62942;52.462;10.846;2022-12-29T03:17:02;9.7;83
74484;SHT31;62942;52.462;10.846;2022-12-29T03:18:13;9.7;82.9
74484;SHT31;62942;52.462;10.846;2022-12-29T03:19:22;9.8;82.9
74484;SHT31;62942;52.462;10.846;2022-12-29T03:20:32;9.9;82.8
74484;SHT31;62942;52.462;10.846;2022-12-29T03:21:42;9.9;82.6
74484;SHT31;62942;52.462;10.846;2022-12-29T03:22:41;9.9;82.5
74484;SHT31;62942;52.462;10.846;2022-12-29T03:23:41;10;82.5
74484;SHT31;62942;52.462;10.846;2022-12-29T03:24:52;10;82.4
74484;SHT31;62942;52.462;10.846;2022-12-29T03:26:01;10;82.4
74484;SHT31;62942;52.462;10.846;2022-12-29T03:27:13;10;82.3
74484;SHT31;62942;52.462;10.846;2022-12-29T03:28:22;10.1;82.3
74484;SHT31;62942;52.462;10.846;2022-12-29T03:29:32;10.1;82.3
74484;SHT31;62942;52.462;10.846;2022-12-29T03:30:41;10.1;82.2
74484;SHT31;62942;52.462;10.846;2022-12-29T03:31:41;10.1;82.2
74484;SHT31;62942;52.462;10.846;2022-12-29T03:32:52;10.1;82.2
74484;SHT31;62942;52.462;10.846;2022-12-29T03:33:51;10.1;82.2
74484;SHT31;62942;52.462;10.846;2022-12-29T03:34:51;10.1;82.2
74484;SHT31;62942;52.462;10.846;2022-12-29T03:35:51;10.1;82.1
74484;SHT31;62942;52.462;10.846;2022-12-29T03:36:52;10.1;82.2
74484;SHT31;62942;52.462;10.846;2022-12-29T03:38:02;10.1;82.2
74484;SHT31;62942;52.462;10.846;2022-12-29T03:39:11;10.1;82.2
74484;SHT31;62942;52.462;10.846;2022-12-29T03:40:21;10.1;82.2
74484;SHT31;62942;52.462;10.846;2022-12-29T03:41:22;10.1;82.2
74484;SHT31;62942;52.462;10.846;2022-12-29T03:42:31;10.1;82.2
74484;SHT31;62942;52.462;10.846;2022-12-29T03:43:31;10.1;82.2
74484;SHT31;62942;52.462;10.846;2022-12-29T03:44:31;10.1;82.3
74484;SHT31;62942;52.462;10.846;2022-12-29T03:45:41;10.1;82.3
74484;SHT31;62942;52.462;10.846;2022-12-29T03:46:41;10.1;82.3
74484;SHT31;62942;52.462;10.846;2022-12-29T03:47:41;10.1;82.3
74484;SHT31;62942;52.462;10.846;2022-12-29T03:48:51;10.1;82.3
74484;SHT31;62942;52.462;10.846;2022-12-29T03:49:51;10.1;82.3
74484;SHT31;62942;52.462;10.846;2022-12-29T03:51:01;10.1;82.4
74484;SHT31;62942;52.462;10.846;2022-12-29T03:52:01;10.1;82.3
74484;SHT31;62942;52.462;10.846;2022-12-29T03:53:11;10.1;82.3
74484;SHT31;62942;52.462;10.846;2022-12-29T03:54:11;10.1;82.4
74484;SHT31;62942;52.462;10.846;2022-12-29T03:55:11;10.1;82.4
74484;SHT31;62942;52.462;10.846;2022-12-29T03:56:11;10.1;82.4
74484;SHT31;62942;52.462;10.846;2022-12-29T03:57:21;10.1;82.4
74484;SHT31;62942;52.462;10.846;2022-12-29T03:58:31;10.1;82.4
74484;SHT31;62942;52.462;10.846;2022-12-29T03:59:41;10.1;82.5
74484;SHT31;62942;52.462;10.846;2022-12-29T04:00:51;10.1;82.5
74484;SHT31;62942;52.462;10.846;2022-12-29T04:02:01;10.1;82.5
74484;SHT31;62942;52.462;10.846;2022-12-29T04:03:01;10.1;82.5
74484;SHT31;62942;52.462;10.846;2022-12-29T04:04:01;10.2;82.5
74484;SHT31;62942;52.462;10.846;2022-12-29T04:05:11;10.2;82.5
74484;SHT31;62942;52.462;10.846;2022-12-29T04:06:11;10.2;82.5
74484;SHT31;62942;52.462;10.846;2022-12-29T04:07:21;10.3;82.3
74484;SHT31;62942;52.462;10.846;2022-12-29T04:08:31;10.3;82.2
74484;SHT31;62942;52.462;10.846;2022-12-29T04:09:31;10.4;82.1
74484;SHT31;62942;52.462;10.846;2022-12-29T04:10:31;10.4;82
74484;SHT31;62942;52.462;10.846;2022-12-29T04:11:31;10.5;82
74484;SHT31;62942;52.462;10.846;2022-12-29T04:12:31;10.5;81.9
74484;SHT31;62942;52.462;10.846;2022-12-29T04:13:31;10.5;81.7
74484;SHT31;62942;52.462;10.846;2022-12-29T04:14:31;10.5;81.8
74484;SHT31;62942;52.462;10.846;2022-12-29T04:15:42;10.5;81.7
74484;SHT31;62942;52.462;10.846;2022-12-29T04:16:41;10.5;81.6
74484;SHT31;62942;52.462;10.846;2022-12-29T04:17:41;10.6;81.6
74484;SHT31;62942;52.462;10.846;2022-12-29T04:18:51;10.6;81.5
74484;SHT31;62942;52.462;10.846;2022-12-29T04:19:51;10.6;81.5
74484;SHT31;62942;52.462;10.846;2022-12-29T04:21:01;10.6;81.4
74484;SHT31;62942;52.462;10.846;2022-12-29T04:22:11;10.6;81.4
74484;SHT31;62942;52.462;10.846;2022-12-29T04:23:11;10.6;81.4
74484;SHT31;62942;52.462;10.846;2022-12-29T04:24:21;10.6;81.5
74484;SHT31;62942;52.462;10.846;2022-12-29T04:25:21;10.6;81.5
74484;SHT31;62942;52.462;10.846;2022-12-29T04:26:31;10.6;81.6
74484;SHT31;62942;52.462;10.846;2022-12-29T04:27:31;10.6;81.6
74484;SHT31;62942;52.462;10.846;2022-12-29T04:28:41;10.6;81.6
74484;SHT31;62942;52.462;10.846;2022-12-29T04:29:41;10.6;81.6
74484;SHT31;62942;52.462;10.846;2022-12-29T04:30:51;10.6;81.7
74484;SHT31;62942;52.462;10.846;2022-12-29T04:31:51;10.6;81.7
74484;SHT31;62942;52.462;10.846;2022-12-29T04:33:01;10.6;81.8
74484;SHT31;62942;52.462;10.846;2022-12-29T04:34:01;10.6;81.8
74484;SHT31;62942;52.462;10.846;2022-12-29T04:35:01;10.6;81.8
74484;SHT31;62942;52.462;10.846;2022-12-29T04:36:01;10.6;81.8
74484;SHT31;62942;52.462;10.846;2022-12-29T04:37:11;10.6;81.8
74484;SHT31;62942;52.462;10.846;2022-12-29T04:38:11;10.6;81.8
74484;SHT31;62942;52.462;10.846;2022-12-29T04:39:11;10.6;81.8
74484;SHT31;62942;52.462;10.846;2022-12-29T04:40:21;10.6;81.8
74484;SHT31;62942;52.462;10.846;2022-12-29T04:41:21;10.6;81.8
74484;SHT31;62942;52.462;10.846;2022-12-29T04:42:21;10.6;81.8
74484;SHT31;62942;52.462;10.846;2022-12-29T04:43:31;10.6;81.7
74484;SHT31;62942;52.462;10.846;2022-12-29T04:44:31;10.7;81.7
74484;SHT31;62942;52.462;10.846;2022-12-29T04:45:31;10.6;81.7
74484;SHT31;62942;52.462;10.846;2022-12-29T04:46:41;10.6;81.7
74484;SHT31;62942;52.462;10.846;2022-12-29T04:47:41;10.6;81.8
74484;SHT31;62942;52.462;10.846;2022-12-29T04:48:51;10.6;81.8
74484;SHT31;62942;52.462;10.846;2022-12-29T04:49:51;10.6;81.8
74484;SHT31;62942;52.462;10.846;2022-12-29T04:51:01;10.6;81.8
74484;SHT31;62942;52.462;10.846;2022-12-29T04:52:01;10.6;81.9
74484;SHT31;62942;52.462;10.846;2022-12-29T04:53:11;10.6;81.9
74484;SHT31;62942;52.462;10.846;2022-12-29T04:54:11;10.6;81.9
74484;SHT31;62942;52.462;10.846;2022-12-29T04:55:21;10.6;81.9
74484;SHT31;62942;52.462;10.846;2022-12-29T04:56:31;10.6;81.8
74484;SHT31;62942;52.462;10.846;2022-12-29T04:57:41;10.6;81.8
74484;SHT31;62942;52.462;10.846;2022-12-29T04:58:41;10.7;81.7
74484;SHT31;62942;52.462;10.846;2022-12-29T04:59:41;10.7;81.6
74484;SHT31;62942;52.462;10.846;2022-12-29T05:00:51;10.7;81.6
74484;SHT31;62942;52.462;10.846;2022-12-29T05:01:51;10.7;81.4
74484;SHT31;62942;52.462;10.846;2022-12-29T05:02:51;10.7;81.2
74484;SHT31;62942;52.462;10.846;2022-12-29T05:04:01;10.8;81.2
74484;SHT31;62942;52.462;10.846;2022-12-29T05:05:01;10.8;81.1
74484;SHT31;62942;52.462;10.846;2022-12-29T05:06:11;10.8;81.1
74484;SHT31;62942;52.462;10.846;2022-12-29T05:07:21;10.8;80.9
74484;SHT31;62942;52.462;10.846;2022-12-29T05:08:21;10.9;81
74484;SHT31;62942;52.462;10.846;2022-12-29T05:09:21;10.9;80.9
74484;SHT31;62942;52.462;10.846;2022-12-29T05:10:31;10.9;80.8
74484;SHT31;62942;52.462;10.846;2022-12-29T05:11:31;10.9;80.7
74484;SHT31;62942;52.462;10.846;2022-12-29T05:12:41;10.9;80.6
74484;SHT31;62942;52.462;10.846;2022-12-29T05:13:51;10.9;80.6
74484;SHT31;62942;52.462;10.846;2022-12-29T05:14:51;11;80.5
74484;SHT31;62942;52.462;10.846;2022-12-29T05:16:01;11;80.3
74484;SHT31;62942;52.462;10.846;2022-12-29T05:17:10;11;80.2
74484;SHT31;62942;52.462;10.846;2022-12-29T05:18:11;11;80
74484;SHT31;62942;52.462;10.846;2022-12-29T05:19:11;11.1;79.9
74484;SHT31;62942;52.462;10.846;2022-12-29T05:20:20;11.1;79.7
74484;SHT31;62942;52.462;10.846;2022-12-29T05:21:21;11.1;79.8
74484;SHT31;62942;52.462;10.846;2022-12-29T05:22:30;11.1;79.7
74484;SHT31;62942;52.462;10.846;2022-12-29T05:23:30;11;79.8
74484;SHT31;62942;52.462;10.846;2022-12-29T05:24:31;11.1;79.8
74484;SHT31;62942;52.462;10.846;2022-12-29T05:25:31;11;79.8
74484;SHT31;62942;52.462;10.846;2022-12-29T05:26:41;11;79.8
74484;SHT31;62942;52.462;10.846;2022-12-29T05:27:40;11;79.9
74484;SHT31;62942;52.462;10.846;2022-12-29T05:28:50;11;79.8
74484;SHT31;62942;52.462;10.846;2022-12-29T05:29:51;11;79.7
74484;SHT31;62942;52.462;10.846;2022-12-29T05:31:01;11.1;79.7
74484;SHT31;62942;52.462;10.846;2022-12-29T05:32:00;11.1;79.6
74484;SHT31;62942;52.462;10.846;2022-12-29T05:33:01;11.1;79.5
74484;SHT31;62942;52.462;10.846;2022-12-29T05:34:00;11.1;79.5
74484;SHT31;62942;52.462;10.846;2022-12-29T05:35:10;11.1;79.4
74484;SHT31;62942;52.462;10.846;2022-12-29T05:36:11;11.1;79.4
74484;SHT31;62942;52.462;10.846;2022-12-29T05:37:10;11.1;79.4
74484;SHT31;62942;52.462;10.846;2022-12-29T05:38:20;11.1;79.3
74484;SHT31;62942;52.462;10.846;2022-12-29T05:39:20;11.1;79.3
74484;SHT31;62942;52.462;10.846;2022-12-29T05:40:30;11.1;79.2
74484;SHT31;62942;52.462;10.846;2022-12-29T05:41:30;11.1;79.2
74484;SHT31;62942;52.462;10.846;2022-12-29T05:42:40;11.1;79.1
74484;SHT31;62942;52.462;10.846;2022-12-29T05:43:40;11.1;79.2
74484;SHT31;62942;52.462;10.846;2022-12-29T05:44:50;11.1;79
74484;SHT31;62942;52.462;10.846;2022-12-29T05:45:51;11.1;78.9
74484;SHT31;62942;52.462;10.846;2022-12-29T05:46:51;11.1;79
74484;SHT31;62942;52.462;10.846;2022-12-29T05:48:00;11.1;79.1
74484;SHT31;62942;52.462;10.846;2022-12-29T05:49:00;11.1;79.1
74484;SHT31;62942;52.462;10.846;2022-12-29T05:50:10;11;79.2
74484;SHT31;62942;52.462;10.846;2022-12-29T05:51:10;11;79.3
74484;SHT31;62942;52.462;10.846;2022-12-29T05:52:20;11;79.4
74484;SHT31;62942;52.462;10.846;2022-12-29T05:53:30;10.9;79.5
74484;SHT31;62942;52.462;10.846;2022-12-29T05:54:30;10.9;79.5
74484;SHT31;62942;52.462;10.846;2022-12-29T05:55:30;10.8;79.6
74484;SHT31;62942;52.462;10.846;2022-12-29T05:56:30;10.8;79.7
74484;SHT31;62942;52.462;10.846;2022-12-29T05:57:30;10.8;79.8
74484;SHT31;62942;52.462;10.846;2022-12-29T05:58:40;10.8;79.9
74484;SHT31;62942;52.462;10.846;2022-12-29T05:59:50;10.8;79.9
74484;SHT31;62942;52.462;10.846;2022-12-29T06:00:50;10.8;79.9
74484;SHT31;62942;52.462;10.846;2022-12-29T06:01:50;10.8;79.9
74484;SHT31;62942;52.462;10.846;2022-12-29T06:02:50;10.8;79.8
74484;SHT31;62942;52.462;10.846;2022-12-29T06:03:50;10.8;79.8
74484;SHT31;62942;52.462;10.846;2022-12-29T06:04:50;10.9;79.7
74484;SHT31;62942;52.462;10.846;2022-12-29T06:06:00;10.9;79.6
74484;SHT31;62942;52.462;10.846;2022-12-29T06:07:00;10.9;79.7
74484;SHT31;62942;52.462;10.846;2022-12-29T06:08:10;10.9;79.7
74484;SHT31;62942;52.462;10.846;2022-12-29T06:09:20;10.8;79.7
74484;SHT31;62942;52.462;10.846;2022-12-29T06:10:20;10.8;79.7
74484;SHT31;62942;52.462;10.846;2022-12-29T06:11:20;10.8;79.7
74484;SHT31;62942;52.462;10.846;2022-12-29T06:12:30;10.8;79.6
74484;SHT31;62942;52.462;10.846;2022-12-29T06:13:40;10.9;79.4
74484;SHT31;62942;52.462;10.846;2022-12-29T06:14:41;10.9;79.4
74484;SHT31;62942;52.462;10.846;2022-12-29T06:15:50;10.9;79.4
74484;SHT31;62942;52.462;10.846;2022-12-29T06:16:50;10.9;79.2
74484;SHT31;62942;52.462;10.846;2022-12-29T06:17:50;10.9;79.2
74484;SHT31;62942;52.462;10.846;2022-12-29T06:19:00;11;79.1
74484;SHT31;62942;52.462;10.846;2022-12-29T06:20:00;11;79
74484;SHT31;62942;52.462;10.846;2022-12-29T06:21:10;11;79
74484;SHT31;62942;52.462;10.846;2022-12-29T06:22:10;11;78.9
74484;SHT31;62942;52.462;10.846;2022-12-29T06:23:20;11;78.9
74484;SHT31;62942;52.462;10.846;2022-12-29T06:24:21;11.1;78.8
74484;SHT31;62942;52.462;10.846;2022-12-29T06:25:30;11.1;78.9
74484;SHT31;62942;52.462;10.846;2022-12-29T06:26:40;11.1;78.9
74484;SHT31;62942;52.462;10.846;2022-12-29T06:27:40;11.1;78.9
74484;SHT31;62942;52.462;10.846;2022-12-29T06:28:50;11.1;79.1
74484;SHT31;62942;52.462;10.846;2022-12-29T06:30:00;11.2;79.2
74484;SHT31;62942;52.462;10.846;2022-12-29T06:31:00;11.1;79.3
74484;SHT31;62942;52.462;10.846;2022-12-29T06:32:10;11.1;79.3
74484;SHT31;62942;52.462;10.846;2022-12-29T06:33:11;11.1;79.3
74484;SHT31;62942;52.462;10.846;2022-12-29T06:34:20;11.1;79.4
74484;SHT31;62942;52.462;10.846;2022-12-29T06:35:30;11.1;79.3
74484;SHT31;62942;52.462;10.846;2022-12-29T06:36:40;11.1;79.2
74484;SHT31;62942;52.462;10.846;2022-12-29T06:37:40;11.1;79.4
74484;SHT31;62942;52.462;10.846;2022-12-29T06:38:40;11.1;79.3
74484;SHT31;62942;52.462;10.846;2022-12-29T06:39:50;11.1;79.4
74484;SHT31;62942;52.462;10.846;2022-12-29T06:40:50;11.1;79.4
74484;SHT31;62942;52.462;10.846;2022-12-29T06:42:00;11.1;79.5
74484;SHT31;62942;52.462;10.846;2022-12-29T06:43:10;11.1;79.5
74484;SHT31;62942;52.462;10.846;2022-12-29T06:44:10;11.2;79.5
74484;SHT31;62942;52.462;10.846;2022-12-29T06:45:20;11.1;79.5
74484;SHT31;62942;52.462;10.846;2022-12-29T06:46:20;11.2;79.6
74484;SHT31;62942;52.462;10.846;2022-12-29T06:47:30;11.2;79.6
74484;SHT31;62942;52.462;10.846;2022-12-29T06:48:30;11.2;79.6
74484;SHT31;62942;52.462;10.846;2022-12-29T06:49:40;11.2;79.7
74484;SHT31;62942;52.462;10.846;2022-12-29T06:50:50;11.2;79.7
74484;SHT31;62942;52.462;10.846;2022-12-29T06:51:50;11.1;79.8
74484;SHT31;62942;52.462;10.846;2022-12-29T06:53:00;11.1;79.8
74484;SHT31;62942;52.462;10.846;2022-12-29T06:54:00;11.1;79.9
74484;SHT31;62942;52.462;10.846;2022-12-29T06:55:10;11.1;80
74484;SHT31;62942;52.462;10.846;2022-12-29T06:56:20;11.1;80
74484;SHT31;62942;52.462;10.846;2022-12-29T06:57:20;11.1;80.2
74484;SHT31;62942;52.462;10.846;2022-12-29T06:58:20;11;80.2
74484;SHT31;62942;52.462;10.846;2022-12-29T06:59:30;11;80.4
74484;SHT31;62942;52.462;10.846;2022-12-29T07:00:30;11;80.5
74484;SHT31;62942;52.462;10.846;2022-12-29T07:01:40;11;80.6
74484;SHT31;62942;52.462;10.846;2022-12-29T07:02:40;11;80.6
74484;SHT31;62942;52.462;10.846;2022-12-29T07:03:40;10.9;80.7